createdAt,value
2022-12-08T00:03:17.957Z,8.15
2022-12-08T00:08:38.658Z,9.75
2022-12-08T00:13:41.086Z,15.63
2022-12-08T00:18:43.085Z,9.27
2022-12-08T00:23:45.178Z,11.02
2022-12-08T00:28:47.328Z,13.55
2022-12-08T00:33:49.376Z,8.15
2022-12-08T00:38:51.456Z,6.18
2022-12-08T00:43:53.519Z,8.48
2022-12-08T00:48:55.564Z,8.77
2022-12-08T00:53:57.710Z,6.13
2022-12-08T00:59:00.326Z,9.45
2022-12-08T01:04:06.763Z,5.50
2022-12-08T01:09:09.673Z,9.63
2022-12-08T01:14:12.442Z,12.32
2022-12-08T01:19:15.870Z,8.20
2022-12-08T01:24:20.771Z,6.50
2022-12-08T01:29:22.804Z,5.88
2022-12-08T01:34:24.823Z,10.75
2022-12-08T01:39:26.899Z,9.52
2022-12-08T01:44:28.910Z,13.55
2022-12-08T01:49:35.058Z,7.88
2022-12-08T01:54:46.090Z,7.88
2022-12-08T01:59:54.643Z,8.15
2022-12-08T02:04:56.624Z,19.67
2022-12-08T02:09:58.802Z,7.32
2022-12-08T02:15:05.095Z,8.25
2022-12-08T02:20:13.480Z,6.85
2022-12-08T02:25:31.337Z,11.15
2022-12-08T02:30:54.898Z,10.02
2022-12-08T02:36:11.811Z,8.73
2022-12-08T02:41:47.067Z,6.53
2022-12-08T02:46:57.365Z,8.02
2022-12-08T02:52:12.359Z,8.87
2022-12-08T02:57:32.648Z,14.00
2022-12-08T03:02:49.840Z,9.45
2022-12-08T03:08:04.445Z,7.03
2022-12-08T03:13:14.814Z,7.55
2022-12-08T03:18:20.814Z,4.60
2022-12-08T03:23:24.862Z,7.20
2022-12-08T03:28:27.591Z,6.47
2022-12-08T03:33:34.898Z,5.97
2022-12-08T03:38:39.063Z,7.15
2022-12-08T03:43:41.246Z,11.07
2022-12-08T03:48:43.773Z,7.32
2022-12-08T03:53:46.276Z,10.25
2022-12-08T03:58:48.338Z,7.18
2022-12-08T04:03:50.666Z,9.10
2022-12-08T04:08:53.848Z,6.80
2022-12-08T04:13:55.800Z,11.32
2022-12-08T04:18:57.778Z,10.45
2022-12-08T04:24:01.548Z,8.55
2022-12-08T04:29:03.771Z,12.98
2022-12-08T04:34:05.789Z,12.55
2022-12-08T04:39:07.842Z,9.43
2022-12-08T04:44:09.906Z,12.15
2022-12-08T04:49:12.009Z,12.50
2022-12-08T04:54:14.156Z,7.85
2022-12-08T04:59:16.307Z,12.25
2022-12-08T05:04:18.409Z,14.45
2022-12-08T05:09:20.512Z,14.77
2022-12-08T05:14:22.806Z,9.02
2022-12-08T05:19:24.990Z,11.50
2022-12-08T05:24:26.990Z,11.48
2022-12-08T05:29:29.041Z,9.63
2022-12-08T05:34:31.115Z,10.90
2022-12-08T05:39:33.161Z,11.85
2022-12-08T05:44:35.102Z,9.52
2022-12-08T05:49:37.202Z,9.73
2022-12-08T05:54:39.263Z,8.23
2022-12-08T05:59:41.405Z,9.77
2022-12-08T06:04:43.383Z,7.30
2022-12-08T06:09:45.560Z,8.35
2022-12-08T06:14:47.636Z,9.88
2022-12-08T06:19:49.661Z,11.02
2022-12-08T06:24:51.718Z,9.43
2022-12-08T06:29:54.004Z,7.85
2022-12-08T06:34:56.097Z,8.80
2022-12-08T06:39:58.330Z,4.65
2022-12-08T06:45:00.868Z,6.03
2022-12-08T06:50:04.444Z,8.27
2022-12-08T06:55:07.313Z,6.55
2022-12-08T07:00:09.888Z,10.95
2022-12-08T07:05:12.045Z,6.65
2022-12-08T07:10:14.150Z,8.65
2022-12-08T07:15:16.374Z,5.70
2022-12-08T07:20:18.618Z,7.10
2022-12-08T07:25:20.901Z,10.27
2022-12-08T07:30:23.115Z,7.43
2022-12-08T07:35:25.097Z,9.95
2022-12-08T07:40:27.262Z,4.78
2022-12-08T07:45:31.627Z,9.15
2022-12-08T07:50:34.402Z,9.68
2022-12-08T07:55:40.764Z,13.10
2022-12-08T08:00:42.837Z,9.05
2022-12-08T08:05:44.975Z,7.28
2022-12-08T08:10:47.568Z,7.95
2022-12-08T08:15:49.738Z,8.05
2022-12-08T08:20:51.837Z,10.27
2022-12-08T08:25:54.753Z,6.30
2022-12-08T08:30:57.501Z,4.88
2022-12-08T08:36:00.107Z,9.55
2022-12-08T08:41:07.870Z,5.85
2022-12-08T08:46:11.198Z,8.57
2022-12-08T08:51:14.730Z,13.10
2022-12-08T08:56:19.526Z,8.40
2022-12-08T09:01:24.918Z,7.88
2022-12-08T09:06:28.564Z,7.82
2022-12-08T09:11:32.974Z,7.82
2022-12-08T09:16:40.377Z,7.90
2022-12-08T09:21:44.103Z,12.30
2022-12-08T09:26:47.239Z,8.50
2022-12-08T09:31:49.295Z,8.95
2022-12-08T09:36:51.371Z,9.48
2022-12-08T09:42:11.918Z,9.55
2022-12-08T09:47:41.493Z,8.43
2022-12-08T09:52:54.270Z,5.90
2022-12-08T09:58:03.288Z,13.48
2022-12-08T10:03:16.422Z,9.25
2022-12-08T10:08:34.650Z,12.27
2022-12-08T10:14:06.793Z,9.07
2022-12-08T10:19:18.152Z,12.80
2022-12-08T10:29:35.042Z,12.63
2022-12-08T10:35:11.012Z,11.73
2022-12-08T10:40:18.077Z,3.55
2022-12-08T10:45:23.367Z,9.25
2022-12-08T10:50:32.406Z,10.85
2022-12-08T10:55:41.880Z,9.82
2022-12-08T11:00:44.119Z,9.93
2022-12-08T11:05:46.991Z,10.65
2022-12-08T11:10:49.224Z,7.35
2022-12-08T11:15:52.527Z,13.57
2022-12-08T11:21:13.143Z,10.35
2022-12-08T11:26:29.799Z,12.13
2022-12-08T11:31:38.552Z,9.43
2022-12-08T11:36:40.680Z,7.85
2022-12-08T11:41:46.123Z,11.18
2022-12-08T11:47:02.573Z,9.40
2022-12-08T11:52:13.324Z,9.75
2022-12-08T11:57:20.970Z,14.52
2022-12-08T12:02:31.909Z,11.88
2022-12-08T12:07:42.651Z,15.90
2022-12-08T12:13:06.192Z,13.73
2022-12-08T12:18:27.399Z,10.95
2022-12-08T12:23:45.171Z,10.35
2022-12-08T12:29:10.938Z,13.25
2022-12-08T12:34:18.709Z,9.07
2022-12-08T12:39:24.907Z,15.27
2022-12-08T12:44:33.824Z,12.05
2022-12-08T12:49:39.665Z,16.02
2022-12-08T12:55:05.554Z,14.63
2022-12-08T13:00:19.609Z,15.40
2022-12-08T13:05:29.767Z,11.52
2022-12-08T13:10:38.278Z,10.60
2022-12-08T13:16:07.605Z,12.32
2022-12-08T13:21:21.630Z,16.58
2022-12-08T13:26:26.269Z,15.93
2022-12-08T13:31:54.364Z,14.88
2022-12-08T13:37:11.629Z,11.90
2022-12-08T13:42:19.543Z,13.32
2022-12-08T13:47:34.927Z,15.10
2022-12-08T13:58:01.121Z,10.50
2022-12-08T14:03:03.318Z,9.77
2022-12-08T14:08:30.140Z,16.17
2022-12-08T14:13:39.255Z,15.38
2022-12-08T14:18:41.224Z,14.68
2022-12-08T14:23:46.350Z,17.80
2022-12-08T14:28:49.922Z,13.05
2022-12-08T14:33:56.577Z,12.98
2022-12-08T14:38:59.118Z,15.60
2022-12-08T14:44:02.246Z,13.50
2022-12-08T14:49:04.359Z,15.35
2022-12-08T14:54:10.349Z,15.13
2022-12-08T14:59:30.741Z,17.15
2022-12-08T15:04:32.839Z,14.57
2022-12-08T15:09:34.814Z,12.93
2022-12-08T15:14:38.293Z,14.57
2022-12-08T15:19:40.376Z,15.73
2022-12-08T15:24:42.355Z,17.17
2022-12-08T15:29:44.689Z,16.50
2022-12-08T15:34:47.322Z,14.90
2022-12-08T15:39:49.647Z,17.20
2022-12-08T15:44:51.688Z,20.75
2022-12-08T15:49:53.733Z,20.27
2022-12-08T15:54:55.731Z,20.92
2022-12-08T15:59:58.847Z,19.35
2022-12-08T16:05:33.794Z,13.35
2022-12-08T16:10:26.478Z,17.05
2022-12-08T16:21:16.879Z,17.17
2022-12-08T16:26:49.126Z,21.63
2022-12-08T16:31:42.248Z,20.02
2022-12-08T16:36:44.263Z,20.65
2022-12-08T16:42:04.630Z,15.75
2022-12-08T16:47:09.893Z,19.85
2022-12-08T16:52:11.862Z,21.70
2022-12-08T16:57:13.907Z,21.08
2022-12-08T17:02:16.691Z,24.65
2022-12-08T17:07:18.883Z,20.67
2022-12-08T17:12:20.854Z,20.17
2022-12-08T17:17:22.893Z,19.48
2022-12-08T17:22:24.866Z,21.27
2022-12-08T17:27:27.075Z,18.75
2022-12-08T17:32:29.096Z,20.17
2022-12-08T17:37:31.129Z,23.02
2022-12-08T17:42:33.132Z,20.45
2022-12-08T17:47:35.307Z,22.55
2022-12-08T17:52:37.589Z,20.05
2022-12-08T17:57:39.581Z,26.02
2022-12-08T18:02:41.567Z,23.08
2022-12-08T18:07:43.587Z,23.58
2022-12-08T18:12:46.313Z,23.75
2022-12-08T18:17:48.348Z,23.23
2022-12-08T18:22:50.399Z,26.10
2022-12-08T18:27:52.427Z,24.30
2022-12-08T18:32:57.433Z,25.45
2022-12-08T18:38:00.320Z,21.60
2022-12-08T18:43:02.286Z,22.85
2022-12-08T18:48:04.601Z,21.27
2022-12-08T18:53:06.624Z,20.35
2022-12-08T18:58:10.947Z,20.27
2022-12-08T19:03:13.124Z,27.05
2022-12-08T19:08:15.349Z,34.40
2022-12-08T19:13:17.436Z,22.23
2022-12-08T19:18:19.544Z,20.88
2022-12-08T19:23:21.561Z,19.23
2022-12-08T19:28:23.608Z,18.88
2022-12-08T19:33:25.754Z,23.15
2022-12-08T19:38:27.895Z,23.70
2022-12-08T19:43:48.441Z,22.00
2022-12-08T19:48:50.442Z,21.77
2022-12-08T19:53:52.433Z,24.70
2022-12-08T19:58:54.394Z,24.90
2022-12-08T20:03:56.448Z,19.33
2022-12-08T20:08:58.636Z,20.08
2022-12-08T20:14:00.633Z,20.27
2022-12-08T20:19:03.217Z,20.98
2022-12-08T20:24:05.501Z,23.20
2022-12-08T20:29:07.688Z,25.83
2022-12-08T20:34:17.100Z,27.10
2022-12-08T20:39:19.443Z,28.83
2022-12-08T20:44:21.578Z,28.10
2022-12-08T20:49:23.665Z,26.00
2022-12-08T20:54:25.762Z,25.65
2022-12-08T20:59:28.035Z,26.60
2022-12-08T21:04:30.242Z,30.70
2022-12-08T21:09:32.534Z,24.52
2022-12-08T21:14:34.861Z,26.38
2022-12-08T21:19:37.148Z,25.05
2022-12-08T21:24:39.252Z,27.27
2022-12-08T21:29:41.416Z,23.40
2022-12-08T21:34:44.281Z,27.20
2022-12-08T21:39:46.518Z,27.75
2022-12-08T21:44:48.915Z,30.02
2022-12-08T21:49:50.946Z,30.02
2022-12-08T21:54:53.317Z,28.45
2022-12-08T21:59:55.371Z,24.30
2022-12-08T22:04:57.541Z,28.20
2022-12-08T22:09:59.949Z,27.52
2022-12-08T22:15:05.685Z,29.15
2022-12-08T22:20:11.684Z,25.92
2022-12-08T22:25:14.175Z,28.08
2022-12-08T22:30:16.761Z,36.40
2022-12-08T22:35:18.833Z,35.05
2022-12-08T22:40:21.139Z,40.63
2022-12-08T22:45:23.673Z,51.75
2022-12-08T22:50:25.819Z,57.25
2022-12-08T22:55:27.851Z,79.93
2022-12-08T23:00:29.997Z,91.00
2022-12-08T23:05:37.000Z,91.68
2022-12-08T23:10:41.013Z,85.75
2022-12-08T23:15:43.171Z,74.85
2022-12-08T23:20:47.059Z,78.10
2022-12-08T23:25:49.338Z,71.00
2022-12-08T23:30:51.506Z,68.97
2022-12-08T23:35:58.070Z,52.80
2022-12-08T23:41:02.130Z,50.30
2022-12-08T23:46:04.775Z,41.88
2022-12-08T23:51:07.001Z,44.42
2022-12-08T23:56:12.121Z,52.55
